Time;durP1;ratioP1;P1;durP2;ratioP2;P2;SDS_P1;SDS_P2;PMS_P1;PMS_P2;Temp;Humidity;BMP_temperature;BMP_pressure;BME280_temperature;BME280_humidity;BME280_pressure;Samples;Min_cycle;Max_cycle;Signal;HPM_P1;HPM_P2
2023/02/04 00:02:11;;;;;;;5.03;1.83;;;;;;;;;;5016895;28;20418;-80
2023/02/04 00:04:44;;;;;;;5.05;1.63;;;;;;;;;;5004010;28;20430;-81
2023/02/04 00:07:12;;;;;;;2.63;1.50;;;;;;;;;;5005908;28;20432;-80
2023/02/04 00:09:39;;;;;;;3.45;1.55;;;;;;;;;;5001960;28;20752;-82
2023/02/04 00:12:12;;;;;;;4.20;1.60;;;;;;;;;;5002977;28;20432;-81
2023/02/04 00:14:40;;;;;;;2.85;1.70;;;;;;;;;;5001544;28;20418;-81
2023/02/04 00:17:14;;;;;;;4.20;1.70;;;;;;;;;;5017840;28;20434;-80
2023/02/04 00:19:42;;;;;;;3.38;1.60;;;;;;;;;;5004490;28;20411;-80
2023/02/04 00:22:15;;;;;;;3.75;1.42;;;;;;;;;;5018149;28;20437;-81
2023/02/04 00:24:49;;;;;;;4.57;1.42;;;;;;;;;;5018339;28;20431;-81
2023/02/04 00:27:17;;;;;;;5.57;1.60;;;;;;;;;;5002581;28;20867;-80
2023/02/04 00:29:49;;;;;;;3.63;1.60;;;;;;;;;;5003012;28;20454;-80
2023/02/04 00:32:24;;;;;;;4.97;1.77;;;;;;;;;;5008786;28;20755;-81
2023/02/04 00:34:57;;;;;;;4.28;1.83;;;;;;;;;;5017318;28;20418;-81
2023/02/04 00:37:30;;;;;;;3.00;1.90;;;;;;;;;;5020231;28;20415;-81
2023/02/04 00:40:04;;;;;;;5.38;2.13;;;;;;;;;;5001176;28;20432;-81
2023/02/04 00:42:32;;;;;;;3.30;1.70;;;;;;;;;;5003395;28;20415;-81
2023/02/04 00:45:05;;;;;;;5.15;2.10;;;;;;;;;;5003136;28;20441;-81
2023/02/04 00:47:34;;;;;;;5.70;2.00;;;;;;;;;;5002358;28;20422;-80
2023/02/04 00:50:07;;;;;;;5.57;1.92;;;;;;;;;;5016201;28;20436;-80
2023/02/04 00:52:40;;;;;;;5.60;1.95;;;;;;;;;;5000158;28;20422;-80
2023/02/04 00:55:11;;;;;;;6.57;2.30;;;;;;;;;;5004745;28;20415;-80
2023/02/04 00:57:38;;;;;;;4.18;2.17;;;;;;;;;;5002500;28;20412;-80
2023/02/04 01:00:12;;;;;;;3.17;2.00;;;;;;;;;;5002009;28;20436;-81
2023/02/04 01:02:46;;;;;;;4.38;1.73;;;;;;;;;;5013688;28;20430;-80
2023/02/04 01:05:19;;;;;;;5.33;1.80;;;;;;;;;;5003256;28;20438;-80
2023/02/04 01:07:52;;;;;;;5.05;2.10;;;;;;;;;;5004422;28;20765;-80
2023/02/04 01:10:20;;;;;;;3.50;1.73;;;;;;;;;;5004055;28;20426;-81
2023/02/04 01:12:52;;;;;;;3.85;1.77;;;;;;;;;;5004734;28;20436;-80
2023/02/04 01:15:26;;;;;;;4.15;1.65;;;;;;;;;;5001456;28;20919;-81
2023/02/04 01:18:01;;;;;;;5.55;2.03;;;;;;;;;;5003069;28;20433;-80
2023/02/04 01:20:34;;;;;;;4.25;2.08;;;;;;;;;;5002848;28;20786;-81
2023/02/04 01:23:07;;;;;;;3.13;1.70;;;;;;;;;;5016502;28;20436;-80
2023/02/04 01:25:35;;;;;;;4.45;2.00;;;;;;;;;;5008200;28;21353;-80
2023/02/04 01:28:08;;;;;;;3.75;1.83;;;;;;;;;;5000505;28;20425;-80
2023/02/04 01:30:41;;;;;;;4.07;1.90;;;;;;;;;;5003344;28;20926;-80
2023/02/04 01:33:16;;;;;;;4.50;1.95;;;;;;;;;;5004568;28;20763;-81
2023/02/04 01:35:44;;;;;;;2.78;1.80;;;;;;;;;;5014029;28;20418;-81
2023/02/04 01:38:11;;;;;;;3.33;2.03;;;;;;;;;;5002409;28;20427;-81
2023/02/04 01:40:39;;;;;;;4.50;1.98;;;;;;;;;;5009207;28;20427;-80
2023/02/04 01:43:12;;;;;;;3.63;1.88;;;;;;;;;;5017627;28;20430;-81
2023/02/04 01:45:45;;;;;;;3.30;1.85;;;;;;;;;;5000648;28;20434;-80
2023/02/04 01:48:19;;;;;;;5.25;2.20;;;;;;;;;;5015811;28;20429;-81
2023/02/04 01:50:56;;;;;;;5.40;2.20;;;;;;;;;;5007715;28;20429;-80
2023/02/04 01:53:26;;;;;;;3.80;2.00;;;;;;;;;;4997811;28;20411;-80
2023/02/04 01:55:54;;;;;;;5.30;1.85;;;;;;;;;;5018636;28;20425;-80
2023/02/04 01:58:27;;;;;;;2.83;1.60;;;;;;;;;;5018008;28;20915;-80
2023/02/04 02:00:59;;;;;;;2.88;1.83;;;;;;;;;;5016307;28;20437;-81
2023/02/04 02:03:28;;;;;;;4.53;2.08;;;;;;;;;;4999204;28;20422;-80
2023/02/04 02:05:57;;;;;;;4.93;2.17;;;;;;;;;;4998841;28;20946;-81
2023/02/04 02:08:30;;;;;;;3.50;2.00;;;;;;;;;;5003621;28;20428;-80
2023/02/04 02:11:03;;;;;;;3.92;2.15;;;;;;;;;;5006115;28;20422;-81
2023/02/04 02:13:35;;;;;;;4.90;2.20;;;;;;;;;;5015172;28;20780;-81
2023/02/04 02:16:03;;;;;;;3.38;2.20;;;;;;;;;;5006289;28;23577;-81
2023/02/04 02:18:36;;;;;;;4.55;2.15;;;;;;;;;;5000692;28;20434;-81
2023/02/04 02:21:12;;;;;;;4.37;2.30;;;;;;;;;;5004123;28;20434;-81
2023/02/04 02:23:46;;;;;;;3.95;2.20;;;;;;;;;;5013884;28;20425;-80
2023/02/04 02:26:15;;;;;;;8.23;2.40;;;;;;;;;;4997520;28;20497;-81
2023/02/04 02:28:48;;;;;;;5.65;2.47;;;;;;;;;;5008618;28;20436;-81
2023/02/04 02:31:22;;;;;;;4.93;2.60;;;;;;;;;;5000535;28;20433;-81
2023/02/04 02:33:54;;;;;;;4.15;2.20;;;;;;;;;;5001146;28;20897;-80
2023/02/04 02:36:22;;;;;;;4.95;2.17;;;;;;;;;;5003416;28;20412;-81
2023/02/04 02:38:58;;;;;;;4.75;2.13;;;;;;;;;;4998107;28;20419;-81
2023/02/04 02:41:27;;;;;;;5.38;2.20;;;;;;;;;;5002048;28;20420;-81
2023/02/04 02:44:00;;;;;;;4.53;2.13;;;;;;;;;;4997614;28;20427;-81
2023/02/04 02:46:33;;;;;;;4.55;2.20;;;;;;;;;;5002587;28;20434;-81
2023/02/04 02:49:06;;;;;;;3.92;2.10;;;;;;;;;;5001876;28;20508;-80
2023/02/04 02:51:39;;;;;;;5.50;2.35;;;;;;;;;;5001431;28;20783;-81
2023/02/04 02:54:19;;;;;;;4.40;2.33;;;;;;;;;;4999608;28;20972;-81
2023/02/04 02:56:55;;;;;;;6.27;2.40;;;;;;;;;;5008304;28;20898;-80
2023/02/04 02:59:24;;;;;;;5.30;2.50;;;;;;;;;;5014932;28;20446;-81
2023/02/04 03:01:58;;;;;;;4.95;2.30;;;;;;;;;;5012751;28;20426;-80
2023/02/04 03:04:37;;;;;;;4.17;2.30;;;;;;;;;;5009100;28;20421;-80
2023/02/04 03:07:12;;;;;;;4.77;2.47;;;;;;;;;;5016104;28;20919;-81
2023/02/04 03:09:42;;;;;;;5.65;2.80;;;;;;;;;;5005791;28;20412;-81
2023/02/04 03:12:10;;;;;;;6.22;2.67;;;;;;;;;;5014304;28;20428;-81
2023/02/04 03:14:38;;;;;;;5.37;2.77;;;;;;;;;;5001875;28;20417;-81
2023/02/04 03:17:11;;;;;;;5.30;2.55;;;;;;;;;;5001039;28;20426;-81
2023/02/04 03:19:46;;;;;;;5.00;2.60;;;;;;;;;;5006451;28;20443;-81
2023/02/04 03:22:19;;;;;;;5.20;2.50;;;;;;;;;;5000775;28;20767;-80
2023/02/04 03:24:53;;;;;;;5.97;2.60;;;;;;;;;;4998139;28;20429;-81
2023/02/04 03:27:25;;;;;;;5.45;2.70;;;;;;;;;;5000286;28;20434;-81
2023/02/04 03:29:58;;;;;;;6.18;2.75;;;;;;;;;;5013745;28;20430;-80
2023/02/04 03:32:31;;;;;;;5.18;2.50;;;;;;;;;;5016848;28;20454;-80
2023/02/04 03:35:04;;;;;;;4.45;2.60;;;;;;;;;;5001120;28;20413;-81
2023/02/04 03:37:37;;;;;;;6.10;2.70;;;;;;;;;;5001370;28;20428;-80
2023/02/04 03:40:06;;;;;;;5.50;2.70;;;;;;;;;;5005177;28;20421;-80
2023/02/04 03:42:39;;;;;;;5.15;2.80;;;;;;;;;;5002205;28;20470;-80
2023/02/04 03:45:12;;;;;;;5.67;2.53;;;;;;;;;;4998178;28;20910;-81
2023/02/04 03:47:45;;;;;;;6.47;2.72;;;;;;;;;;5004919;28;20941;-81
2023/02/04 03:50:18;;;;;;;5.70;2.60;;;;;;;;;;5000604;28;20418;-81
2023/02/04 03:52:52;;;;;;;5.15;2.53;;;;;;;;;;5018204;28;20436;-81
2023/02/04 03:55:21;;;;;;;5.60;2.40;;;;;;;;;;5002807;28;20426;-80
2023/02/04 03:57:49;;;;;;;4.68;2.25;;;;;;;;;;5001238;28;20883;-80
2023/02/04 04:00:22;;;;;;;5.45;2.22;;;;;;;;;;5003159;28;21156;-80
2023/02/04 04:02:56;;;;;;;4.70;2.10;;;;;;;;;;5015673;28;20433;-80
2023/02/04 04:05:24;;;;;;;5.15;2.28;;;;;;;;;;5000710;28;21088;-80
2023/02/04 04:07:51;;;;;;;5.13;2.50;;;;;;;;;;4997631;28;20920;-81
2023/02/04 04:10:27;;;;;;;5.60;2.40;;;;;;;;;;5000036;28;20439;-80
2023/02/04 04:13:00;;;;;;;6.20;2.50;;;;;;;;;;5000487;28;20910;-81
2023/02/04 04:15:32;;;;;;;4.43;2.50;;;;;;;;;;5000056;28;20427;-81
2023/02/04 04:18:01;;;;;;;6.50;2.60;;;;;;;;;;5000194;28;20928;-81
2023/02/04 04:20:29;;;;;;;6.88;2.40;;;;;;;;;;4999314;28;20747;-80
2023/02/04 04:23:02;;;;;;;4.57;2.35;;;;;;;;;;5003926;28;20634;-80
2023/02/04 04:25:36;;;;;;;3.85;2.20;;;;;;;;;;5004876;28;20432;-80
2023/02/04 04:28:08;;;;;;;5.00;2.30;;;;;;;;;;5001695;28;20428;-81
2023/02/04 04:30:41;;;;;;;4.15;2.10;;;;;;;;;;5002317;28;20438;-80
2023/02/04 04:33:09;;;;;;;4.22;2.20;;;;;;;;;;5016284;28;20433;-81
2023/02/04 04:35:42;;;;;;;6.97;2.20;;;;;;;;;;5003793;28;20426;-81
2023/02/04 04:38:14;;;;;;;6.45;2.47;;;;;;;;;;5017466;28;20878;-81
2023/02/04 04:40:43;;;;;;;4.68;2.13;;;;;;;;;;5019837;28;20417;-82
2023/02/04 04:43:11;;;;;;;5.63;2.40;;;;;;;;;;5000781;28;20422;-80
2023/02/04 04:45:44;;;;;;;6.57;2.28;;;;;;;;;;5017485;28;20433;-81
2023/02/04 04:48:17;;;;;;;4.65;2.15;;;;;;;;;;5018567;28;20441;-80
2023/02/04 04:50:50;;;;;;;6.88;2.30;;;;;;;;;;5000496;28;20422;-80
2023/02/04 04:53:17;;;;;;;4.32;2.30;;;;;;;;;;5019867;28;20436;-80
2023/02/04 04:55:46;;;;;;;5.40;2.30;;;;;;;;;;5009850;28;20428;-81
2023/02/04 04:58:19;;;;;;;3.90;2.25;;;;;;;;;;5009480;28;20774;-81
2023/02/04 05:00:52;;;;;;;5.57;2.50;;;;;;;;;;5008480;28;20423;-80
2023/02/04 05:03:24;;;;;;;5.85;2.30;;;;;;;;;;5000513;28;20423;-80
2023/02/04 05:05:57;;;;;;;5.00;2.20;;;;;;;;;;5003862;28;20422;-81
2023/02/04 05:08:30;;;;;;;5.03;2.42;;;;;;;;;;5017969;28;20449;-81
2023/02/04 05:11:04;;;;;;;5.97;2.65;;;;;;;;;;5020678;28;20887;-81
2023/02/04 05:13:37;;;;;;;5.20;2.35;;;;;;;;;;5008358;28;20430;-80
2023/02/04 05:16:11;;;;;;;6.72;2.70;;;;;;;;;;4997995;28;20429;-80
2023/02/04 05:18:43;;;;;;;3.93;2.07;;;;;;;;;;4999270;28;20425;-81
2023/02/04 05:21:11;;;;;;;5.68;2.33;;;;;;;;;;5001828;28;20435;-81
2023/02/04 05:23:44;;;;;;;5.43;2.67;;;;;;;;;;5008476;28;20457;-81
2023/02/04 05:26:18;;;;;;;4.60;2.30;;;;;;;;;;5005563;28;20435;-81
2023/02/04 05:28:46;;;;;;;4.60;2.25;;;;;;;;;;5014864;28;20772;-80
2023/02/04 05:31:13;;;;;;;4.30;2.35;;;;;;;;;;5010665;28;20445;-80
2023/02/04 05:33:46;;;;;;;6.18;2.40;;;;;;;;;;5000315;28;20430;-80
2023/02/04 05:36:19;;;;;;;4.50;2.35;;;;;;;;;;5004306;28;20901;-80
2023/02/04 05:38:52;;;;;;;4.53;2.00;;;;;;;;;;5003260;28;20425;-81
2023/02/04 05:41:26;;;;;;;4.97;2.40;;;;;;;;;;5004746;28;20422;-81
2023/02/04 05:43:58;;;;;;;5.68;2.22;;;;;;;;;;4997062;28;20432;-81
2023/02/04 05:46:31;;;;;;;5.13;2.22;;;;;;;;;;5016124;28;20954;-81
2023/02/04 05:49:04;;;;;;;6.13;2.53;;;;;;;;;;4999893;28;20439;-81
2023/02/04 05:51:37;;;;;;;5.60;2.40;;;;;;;;;;5000631;28;20436;-81
2023/02/04 05:54:10;;;;;;;4.10;2.30;;;;;;;;;;5002537;28;20430;-80
2023/02/04 05:56:44;;;;;;;8.18;2.40;;;;;;;;;;5000598;28;20425;-80
2023/02/04 05:59:17;;;;;;;5.38;2.40;;;;;;;;;;5002229;28;20447;-80
2023/02/04 06:01:49;;;;;;;6.25;2.88;;;;;;;;;;4999182;28;20430;-81
2023/02/04 06:04:22;;;;;;;7.30;3.20;;;;;;;;;;5011493;28;20444;-80
2023/02/04 06:06:55;;;;;;;6.28;2.55;;;;;;;;;;5015391;28;20924;-81
2023/02/04 06:09:27;;;;;;;4.63;2.30;;;;;;;;;;5000196;28;20421;-81
2023/02/04 06:12:02;;;;;;;5.93;2.60;;;;;;;;;;4999395;28;20425;-80
2023/02/04 06:14:34;;;;;;;6.40;2.42;;;;;;;;;;4999732;28;20434;-80
2023/02/04 06:17:07;;;;;;;7.40;2.50;;;;;;;;;;5015907;28;20437;-80
2023/02/04 06:19:35;;;;;;;6.20;2.60;;;;;;;;;;5001449;28;20420;-81
2023/02/04 06:22:03;;;;;;;5.65;2.63;;;;;;;;;;4999669;28;20914;-80
2023/02/04 06:24:30;;;;;;;4.25;2.40;;;;;;;;;;5002757;28;20418;-80
2023/02/04 06:27:05;;;;;;;5.88;2.78;;;;;;;;;;5016167;28;20427;-80
2023/02/04 06:29:32;;;;;;;5.40;2.40;;;;;;;;;;4999891;28;20429;-79
2023/02/04 06:32:05;;;;;;;7.07;2.92;;;;;;;;;;5014497;28;20434;-80
2023/02/04 06:34:38;;;;;;;4.65;2.45;;;;;;;;;;4999249;28;20424;-80
2023/02/04 06:37:06;;;;;;;5.15;2.40;;;;;;;;;;5014512;28;20423;-81
2023/02/04 06:39:33;;;;;;;7.57;2.80;;;;;;;;;;5000739;28;20427;-80
2023/02/04 06:42:07;;;;;;;6.45;2.58;;;;;;;;;;4998631;28;20427;-80
2023/02/04 06:44:35;;;;;;;7.50;3.58;;;;;;;;;;5000505;28;20768;-81
2023/02/04 06:47:08;;;;;;;5.03;2.70;;;;;;;;;;5014360;28;20434;-80
2023/02/04 06:49:41;;;;;;;9.68;2.88;;;;;;;;;;5000531;28;20453;-80
2023/02/04 06:52:09;;;;;;;4.82;2.65;;;;;;;;;;5000398;28;20414;-80
2023/02/04 06:54:41;;;;;;;6.10;2.90;;;;;;;;;;5012926;28;20892;-80
2023/02/04 06:57:11;;;;;;;6.33;2.70;;;;;;;;;;5000165;28;20430;-80
2023/02/04 06:59:45;;;;;;;5.55;2.60;;;;;;;;;;5003187;28;20939;-80
2023/02/04 07:02:18;;;;;;;6.47;2.60;;;;;;;;;;5018461;28;20423;-80
2023/02/04 07:04:51;;;;;;;5.80;2.63;;;;;;;;;;5002762;28;20422;-80
2023/02/04 07:07:19;;;;;;;6.00;2.80;;;;;;;;;;5003750;28;20421;-80
2023/02/04 07:09:46;;;;;;;6.23;2.90;;;;;;;;;;5003433;28;20511;-80
2023/02/04 07:12:21;;;;;;;6.27;3.07;;;;;;;;;;5000355;28;20442;-80
2023/02/04 07:14:53;;;;;;;5.20;2.80;;;;;;;;;;5016968;28;20426;-80
2023/02/04 07:17:26;;;;;;;6.40;3.10;;;;;;;;;;4999044;28;20430;-80
2023/02/04 07:19:54;;;;;;;6.55;2.70;;;;;;;;;;4999875;28;20413;-80
2023/02/04 07:22:26;;;;;;;7.03;2.88;;;;;;;;;;5001143;28;20799;-81
2023/02/04 07:24:59;;;;;;;6.45;3.10;;;;;;;;;;5000228;28;20742;-83
2023/02/04 07:27:28;;;;;;;6.40;3.00;;;;;;;;;;5002655;28;20834;-80
2023/02/04 07:29:56;;;;;;;7.13;2.88;;;;;;;;;;5001483;28;20421;-80
2023/02/04 07:32:31;;;;;;;6.55;3.15;;;;;;;;;;5002252;28;20433;-80
2023/02/04 07:35:04;;;;;;;6.15;3.30;;;;;;;;;;4997013;28;20431;-79
2023/02/04 07:37:37;;;;;;;10.00;3.22;;;;;;;;;;5012096;28;20430;-80
2023/02/04 07:40:11;;;;;;;8.18;3.13;;;;;;;;;;5002044;28;20428;-80
2023/02/04 07:42:45;;;;;;;8.30;2.90;;;;;;;;;;4997152;28;20426;-80
2023/02/04 07:45:21;;;;;;;7.53;3.03;;;;;;;;;;4998433;28;20418;-80
2023/02/04 07:47:49;;;;;;;8.02;3.30;;;;;;;;;;4999781;28;20912;-80
2023/02/04 07:50:17;;;;;;;7.25;3.20;;;;;;;;;;4999134;28;20532;-80
2023/02/04 07:52:49;;;;;;;7.28;3.55;;;;;;;;;;5000397;28;20409;-80
2023/02/04 07:55:18;;;;;;;7.05;3.05;;;;;;;;;;5000268;28;20901;-80
2023/02/04 07:57:52;;;;;;;6.28;3.10;;;;;;;;;;4999724;28;20421;-80
2023/02/04 08:00:25;;;;;;;7.05;3.15;;;;;;;;;;5001087;28;20765;-80
2023/02/04 08:02:57;;;;;;;7.70;3.28;;;;;;;;;;5019317;28;20467;-80
2023/02/04 08:05:30;;;;;;;9.68;3.40;;;;;;;;;;5023766;28;20433;-80
2023/02/04 08:08:00;;;;;;;7.90;3.25;;;;;;;;;;5000097;28;20429;-80
2023/02/04 08:10:33;;;;;;;9.48;3.70;;;;;;;;;;5005417;28;20437;-80
2023/02/04 08:13:07;;;;;;;8.95;4.18;;;;;;;;;;5005338;28;20426;-80
2023/02/04 08:15:40;;;;;;;8.23;4.00;;;;;;;;;;5005535;28;20750;-80
2023/02/04 08:18:12;;;;;;;7.80;3.30;;;;;;;;;;5002716;28;20992;-80
2023/02/04 08:20:45;;;;;;;8.67;3.37;;;;;;;;;;5003648;28;20413;-80
2023/02/04 08:23:18;;;;;;;6.37;2.97;;;;;;;;;;5001668;28;20434;-80
2023/02/04 08:25:45;;;;;;;8.85;3.30;;;;;;;;;;5010412;28;20417;-80
2023/02/04 08:28:19;;;;;;;8.15;3.60;;;;;;;;;;5005699;28;20428;-80
2023/02/04 08:30:47;;;;;;;7.60;3.30;;;;;;;;;;5002811;28;20441;-80
2023/02/04 08:33:15;;;;;;;6.88;3.25;;;;;;;;;;5000201;28;20430;-81
2023/02/04 08:35:49;;;;;;;8.57;3.38;;;;;;;;;;5004754;28;20453;-82
2023/02/04 08:38:21;;;;;;;6.30;3.05;;;;;;;;;;5003066;28;20428;-81
2023/02/04 08:40:54;;;;;;;7.45;2.95;;;;;;;;;;5003846;28;20425;-82
2023/02/04 08:43:28;;;;;;;7.10;2.92;;;;;;;;;;5015469;28;20436;-82
2023/02/04 08:46:01;;;;;;;7.35;2.80;;;;;;;;;;5002629;28;20902;-82
2023/02/04 08:48:34;;;;;;;5.78;2.95;;;;;;;;;;4995706;28;20438;-81
2023/02/04 08:51:07;;;;;;;8.20;3.15;;;;;;;;;;4998352;28;20430;-81
2023/02/04 08:53:40;;;;;;;6.88;3.08;;;;;;;;;;5008235;28;20777;-81
2023/02/04 08:56:15;;;;;;;6.55;3.33;;;;;;;;;;5017244;28;21310;-82
2023/02/04 08:58:51;;;;;;;6.18;3.08;;;;;;;;;;5007009;28;20780;-82
2023/02/04 09:01:19;;;;;;;6.53;3.10;;;;;;;;;;4999758;28;20468;-82
2023/02/04 09:03:52;;;;;;;6.90;3.10;;;;;;;;;;5005337;28;20434;-82
2023/02/04 09:06:25;;;;;;;6.07;3.10;;;;;;;;;;5004161;28;21047;-81
2023/02/04 09:08:58;;;;;;;7.78;2.97;;;;;;;;;;5008263;28;20440;-82
2023/02/04 09:11:31;;;;;;;7.35;3.10;;;;;;;;;;5002294;28;21900;-82
2023/02/04 09:14:00;;;;;;;7.05;2.90;;;;;;;;;;5014116;28;20443;-82
2023/02/04 09:16:33;;;;;;;5.72;2.95;;;;;;;;;;5016049;28;20440;-81
2023/02/04 09:19:09;;;;;;;11.50;2.90;;;;;;;;;;5015986;28;20432;-81
2023/02/04 09:21:42;;;;;;;8.02;3.20;;;;;;;;;;5000865;28;20427;-81
2023/02/04 09:24:15;;;;;;;5.70;3.08;;;;;;;;;;4995958;28;20436;-82
2023/02/04 09:26:48;;;;;;;8.00;3.25;;;;;;;;;;5001006;28;20791;-83
2023/02/04 09:29:17;;;;;;;6.68;3.08;;;;;;;;;;5014652;28;20449;-82
2023/02/04 09:31:49;;;;;;;5.82;3.05;;;;;;;;;;5006239;28;20426;-81
2023/02/04 09:34:17;;;;;;;4.88;2.83;;;;;;;;;;5002915;28;20420;-82
2023/02/04 09:36:45;;;;;;;6.20;3.00;;;;;;;;;;5000170;28;20417;-82
2023/02/04 09:39:13;;;;;;;6.00;2.70;;;;;;;;;;4998671;28;20439;-82
2023/02/04 09:41:46;;;;;;;6.60;2.90;;;;;;;;;;5004781;28;20791;-81
2023/02/04 09:44:26;;;;;;;6.43;2.77;;;;;;;;;;4998528;28;20424;-81
2023/02/04 09:46:59;;;;;;;4.70;2.22;;;;;;;;;;4998441;28;20441;-82
2023/02/04 09:49:32;;;;;;;6.25;2.50;;;;;;;;;;4999404;28;20948;-81
2023/02/04 09:52:09;;;;;;;7.13;2.45;;;;;;;;;;5010591;28;20429;-81
2023/02/04 09:54:37;;;;;;;5.07;2.38;;;;;;;;;;5000096;28;20433;-81
2023/02/04 09:57:12;;;;;;;5.03;2.38;;;;;;;;;;5000290;28;20925;-82
2023/02/04 09:59:42;;;;;;;6.07;2.05;;;;;;;;;;5004814;28;20423;-81
2023/02/04 10:02:24;;;;;;;5.72;2.15;;;;;;;;;;5015179;28;20759;-81
2023/02/04 10:04:56;;;;;;;4.65;1.80;;;;;;;;;;5003841;28;20426;-82
2023/02/04 10:07:26;;;;;;;6.10;2.10;;;;;;;;;;4998562;28;20430;-82
2023/02/04 10:09:59;;;;;;;5.05;2.30;;;;;;;;;;4996231;28;20437;-81
2023/02/04 10:12:31;;;;;;;4.78;2.10;;;;;;;;;;5011943;28;20440;-82
2023/02/04 10:15:09;;;;;;;6.13;2.30;;;;;;;;;;4998006;28;20437;-82
2023/02/04 10:17:42;;;;;;;5.20;2.10;;;;;;;;;;4995872;28;20437;-82
2023/02/04 10:20:14;;;;;;;4.30;1.70;;;;;;;;;;4997365;28;20453;-81
2023/02/04 10:22:42;;;;;;;3.13;1.80;;;;;;;;;;4998830;28;20421;-83
2023/02/04 10:25:14;;;;;;;5.70;2.13;;;;;;;;;;5011879;28;20415;-81
2023/02/04 10:27:49;;;;;;;6.00;2.00;;;;;;;;;;4998270;28;20429;-81
2023/02/04 10:30:25;;;;;;;5.15;1.70;;;;;;;;;;4997266;28;20435;-83
2023/02/04 10:32:58;;;;;;;4.90;1.90;;;;;;;;;;4997357;28;20431;-81
2023/02/04 10:35:31;;;;;;;5.10;2.00;;;;;;;;;;5006225;28;20437;-82
2023/02/04 10:38:05;;;;;;;3.92;1.60;;;;;;;;;;5012413;28;20440;-82
2023/02/04 10:40:38;;;;;;;2.70;1.60;;;;;;;;;;5000959;28;20428;-82
2023/02/04 10:43:11;;;;;;;3.10;1.50;;;;;;;;;;4994861;28;20439;-81
2023/02/04 10:45:46;;;;;;;4.35;1.92;;;;;;;;;;4989999;28;20443;-82
2023/02/04 10:48:19;;;;;;;3.55;1.40;;;;;;;;;;5001983;28;20435;-81
2023/02/04 10:50:48;;;;;;;4.22;1.60;;;;;;;;;;4993414;28;20418;-81
2023/02/04 10:56:15;;;;;;;5.63;1.60;;;;;;;;;;5014853;28;20440;-81
2023/02/04 10:58:48;;;;;;;4.85;1.80;;;;;;;;;;4997790;28;20428;-81
2023/02/04 11:01:17;;;;;;;3.33;1.60;;;;;;;;;;4993057;28;20434;-81
2023/02/04 11:03:50;;;;;;;3.78;1.60;;;;;;;;;;4995826;28;20444;-81
2023/02/04 11:06:20;;;;;;;3.55;1.60;;;;;;;;;;4997905;28;20421;-81
2023/02/04 11:08:54;;;;;;;3.45;1.52;;;;;;;;;;4998420;28;20765;-81
2023/02/04 11:11:26;;;;;;;3.50;1.40;;;;;;;;;;4994332;28;20443;-82
2023/02/04 11:13:59;;;;;;;3.88;1.60;;;;;;;;;;5008798;28;20442;-81
2023/02/04 11:16:34;;;;;;;3.10;1.40;;;;;;;;;;4998178;28;20436;-81
2023/02/04 11:19:12;;;;;;;2.70;1.40;;;;;;;;;;4996141;28;21034;-81
2023/02/04 11:21:45;;;;;;;3.47;1.63;;;;;;;;;;4997239;28;20434;-81
2023/02/04 11:24:23;;;;;;;2.95;1.50;;;;;;;;;;4997472;28;20430;-81
2023/02/04 11:27:05;;;;;;;2.17;1.27;;;;;;;;;;4993521;28;20434;-81
2023/02/04 11:29:36;;;;;;;3.00;1.30;;;;;;;;;;5013378;28;20939;-81
2023/02/04 11:32:07;;;;;;;3.35;1.40;;;;;;;;;;5000736;28;20428;-81
2023/02/04 11:34:47;;;;;;;3.63;1.50;;;;;;;;;;5002585;28;20428;-81
2023/02/04 11:37:34;;;;;;;2.78;1.45;;;;;;;;;;5004519;28;20426;-81
2023/02/04 11:40:20;;;;;;;3.45;1.50;;;;;;;;;;5015012;28;20442;-81
2023/02/04 11:43:00;;;;;;;3.47;1.58;;;;;;;;;;5006348;28;20431;-80
2023/02/04 11:45:34;;;;;;;2.88;1.38;;;;;;;;;;4999188;28;20441;-81
2023/02/04 11:48:10;;;;;;;2.80;1.40;;;;;;;;;;5002311;28;20459;-81
2023/02/04 11:50:44;;;;;;;1.90;1.30;;;;;;;;;;4996550;28;20770;-81
2023/02/04 11:53:16;;;;;;;1.80;1.20;;;;;;;;;;5018956;28;20515;-84
2023/02/04 11:55:49;;;;;;;2.22;1.27;;;;;;;;;;5004718;28;20442;-81
2023/02/04 11:58:24;;;;;;;4.65;1.67;;;;;;;;;;5013919;28;20435;-82
2023/02/04 12:00:57;;;;;;;3.33;1.35;;;;;;;;;;5002933;28;20428;-81
2023/02/04 12:03:29;;;;;;;3.27;1.60;;;;;;;;;;5015257;28;20530;-81
2023/02/04 12:06:02;;;;;;;2.45;1.27;;;;;;;;;;5004106;28;21054;-81
2023/02/04 12:08:34;;;;;;;4.35;1.60;;;;;;;;;;4999431;28;20433;-80
2023/02/04 12:11:10;;;;;;;5.05;1.60;;;;;;;;;;5000227;28;20434;-81
2023/02/04 12:13:47;;;;;;;2.30;1.35;;;;;;;;;;5002599;28;20433;-81
2023/02/04 12:16:19;;;;;;;3.97;1.42;;;;;;;;;;4998556;28;20442;-81
2023/02/04 12:18:54;;;;;;;4.03;1.60;;;;;;;;;;4999510;28;20437;-82
2023/02/04 12:21:27;;;;;;;2.33;1.40;;;;;;;;;;5003241;28;20458;-81
2023/02/04 12:23:57;;;;;;;3.90;1.70;;;;;;;;;;5002648;28;20911;-81
2023/02/04 12:26:30;;;;;;;3.35;1.45;;;;;;;;;;5002314;28;20497;-81
2023/02/04 12:29:04;;;;;;;2.72;1.50;;;;;;;;;;5008537;28;20945;-81
2023/02/04 12:31:37;;;;;;;4.80;1.60;;;;;;;;;;5004465;28;20896;-82
2023/02/04 12:34:06;;;;;;;2.28;1.25;;;;;;;;;;5001046;28;20434;-82
2023/02/04 12:36:39;;;;;;;2.75;1.35;;;;;;;;;;5016936;28;20433;-82
2023/02/04 12:39:11;;;;;;;2.03;1.10;;;;;;;;;;5007612;28;20441;-82
2023/02/04 12:41:44;;;;;;;3.35;1.40;;;;;;;;;;5014432;28;20441;-82
2023/02/04 12:44:17;;;;;;;2.17;1.15;;;;;;;;;;5002237;28;20423;-82
2023/02/04 12:46:45;;;;;;;1.92;1.10;;;;;;;;;;5008862;28;20429;-82
2023/02/04 12:49:19;;;;;;;2.90;1.10;;;;;;;;;;5001589;28;20429;-82
2023/02/04 12:51:47;;;;;;;2.00;1.20;;;;;;;;;;5016594;28;20426;-82
2023/02/04 12:54:20;;;;;;;2.40;1.30;;;;;;;;;;5002439;28;20435;-82
2023/02/04 12:56:51;;;;;;;2.58;1.20;;;;;;;;;;4996993;28;20469;-81
2023/02/04 12:59:19;;;;;;;2.85;1.35;;;;;;;;;;4996673;28;20430;-81
2023/02/04 13:01:49;;;;;;;1.97;1.03;;;;;;;;;;5009627;28;20432;-81
2023/02/04 13:04:22;;;;;;;2.20;1.23;;;;;;;;;;4984020;28;21056;-81
2023/02/04 13:06:53;;;;;;;2.10;1.00;;;;;;;;;;4990660;28;20435;-81
2023/02/04 13:09:29;;;;;;;3.47;1.40;;;;;;;;;;4989866;28;20463;-81
2023/02/04 13:12:01;;;;;;;2.45;1.30;;;;;;;;;;5003489;28;20960;-81
2023/02/04 13:14:34;;;;;;;2.20;1.23;;;;;;;;;;4987487;28;20433;-81
2023/02/04 13:17:07;;;;;;;2.00;1.25;;;;;;;;;;4984398;28;21263;-81
2023/02/04 13:19:40;;;;;;;1.60;1.13;;;;;;;;;;4987485;28;20431;-80
2023/02/04 13:22:14;;;;;;;2.70;1.10;;;;;;;;;;4980990;28;21001;-79
2023/02/04 13:24:47;;;;;;;1.45;1.00;;;;;;;;;;4983396;28;20436;-81
2023/02/04 13:27:20;;;;;;;2.90;1.17;;;;;;;;;;4997837;28;20435;-80
2023/02/04 13:29:48;;;;;;;1.90;1.25;;;;;;;;;;4988596;28;20434;-81
2023/02/04 13:32:21;;;;;;;2.28;1.20;;;;;;;;;;4990209;28;21142;-80
2023/02/04 13:34:48;;;;;;;5.78;1.38;;;;;;;;;;4989551;28;20428;-80
2023/02/04 13:37:23;;;;;;;2.35;1.30;;;;;;;;;;4990842;28;20425;-80
2023/02/04 13:39:55;;;;;;;3.55;1.25;;;;;;;;;;4981952;28;20441;-80
2023/02/04 13:42:28;;;;;;;2.40;1.27;;;;;;;;;;4987235;28;20795;-81
2023/02/04 13:44:56;;;;;;;5.80;1.25;;;;;;;;;;4989153;28;20433;-80
2023/02/04 13:47:29;;;;;;;2.85;1.40;;;;;;;;;;4990589;28;20447;-80
2023/02/04 13:49:57;;;;;;;2.58;1.20;;;;;;;;;;4999279;28;20440;-79
2023/02/04 13:52:32;;;;;;;3.38;1.60;;;;;;;;;;5001704;28;20428;-80
2023/02/04 13:55:03;;;;;;;2.60;1.23;;;;;;;;;;5002558;28;21121;-80
2023/02/04 13:57:37;;;;;;;4.47;1.20;;;;;;;;;;5004090;28;20480;-80
2023/02/04 14:00:10;;;;;;;3.60;1.10;;;;;;;;;;4986595;28;21091;-80
2023/02/04 14:02:43;;;;;;;2.30;1.10;;;;;;;;;;4981033;28;20432;-80
2023/02/04 14:05:16;;;;;;;2.17;1.00;;;;;;;;;;4992740;28;20425;-80
2023/02/04 14:07:45;;;;;;;2.38;1.15;;;;;;;;;;5001861;28;20437;-80
2023/02/04 14:10:13;;;;;;;2.28;1.15;;;;;;;;;;4970706;28;20456;-80
2023/02/04 14:12:46;;;;;;;2.80;1.30;;;;;;;;;;4984992;28;20427;-80
2023/02/04 14:15:18;;;;;;;1.33;1.10;;;;;;;;;;4984317;28;21886;-80
2023/02/04 14:17:51;;;;;;;2.00;1.10;;;;;;;;;;4994820;28;20431;-79
2023/02/04 14:20:25;;;;;;;2.63;1.25;;;;;;;;;;4983747;28;20424;-79
2023/02/04 14:22:59;;;;;;;3.50;1.20;;;;;;;;;;4989832;28;21086;-79
2023/02/04 14:25:50;;;;;;;2.13;1.00;;;;;;;;;;4991913;28;20434;-80
2023/02/04 14:28:18;;;;;;;2.25;1.00;;;;;;;;;;4987858;28;21238;-81
2023/02/04 14:30:53;;;;;;;1.35;0.90;;;;;;;;;;4989214;28;20426;-80
2023/02/04 14:33:21;;;;;;;2.28;1.02;;;;;;;;;;5010549;28;20455;-81
2023/02/04 14:35:49;;;;;;;2.28;0.95;;;;;;;;;;4990942;28;20428;-80
2023/02/04 14:38:18;;;;;;;1.73;1.10;;;;;;;;;;4987592;28;20467;-81
2023/02/04 14:40:51;;;;;;;1.92;1.10;;;;;;;;;;4988412;28;20805;-81
2023/02/04 14:43:20;;;;;;;3.42;1.10;;;;;;;;;;4986539;28;20443;-80
2023/02/04 14:45:53;;;;;;;2.13;1.17;;;;;;;;;;4985429;28;20425;-81
2023/02/04 14:48:20;;;;;;;2.38;1.20;;;;;;;;;;4989455;28;20432;-80
2023/02/04 14:50:53;;;;;;;1.60;1.02;;;;;;;;;;4990710;28;21283;-80
2023/02/04 14:53:22;;;;;;;2.25;1.10;;;;;;;;;;4983123;28;20436;-81
2023/02/04 14:55:50;;;;;;;1.85;1.08;;;;;;;;;;4984903;28;20439;-79
2023/02/04 14:58:23;;;;;;;2.25;1.25;;;;;;;;;;4986749;28;20840;-81
2023/02/04 15:00:56;;;;;;;2.85;1.40;;;;;;;;;;4978419;28;20451;-80
2023/02/04 15:03:29;;;;;;;2.78;1.27;;;;;;;;;;4994857;28;20444;-81
2023/02/04 15:06:01;;;;;;;2.72;1.17;;;;;;;;;;4987142;28;21181;-81
2023/02/04 15:08:35;;;;;;;3.08;1.17;;;;;;;;;;4988633;28;22328;-81
2023/02/04 15:11:08;;;;;;;2.33;1.27;;;;;;;;;;4982653;28;20469;-80
2023/02/04 15:13:36;;;;;;;2.75;1.50;;;;;;;;;;4985267;28;20426;-80
2023/02/04 15:16:05;;;;;;;2.15;1.20;;;;;;;;;;4988119;28;20471;-80